sensor_id;sensor_type;location;lat;lon;timestamp;P1;durP1;ratioP1;P2;durP2;ratioP2
17201;SDS011;8717;53.588;10.176;2022-11-15T00:00:35;39.43;;;25.90;;
17201;SDS011;8717;53.588;10.176;2022-11-15T00:03:22;39.53;;;25.40;;
17201;SDS011;8717;53.588;10.176;2022-11-15T00:06:08;37.60;;;23.43;;
17201;SDS011;8717;53.588;10.176;2022-11-15T00:08:54;42.70;;;25.10;;
17201;SDS011;8717;53.588;10.176;2022-11-15T00:11:42;40.90;;;25.90;;
17201;SDS011;8717;53.588;10.176;2022-11-15T00:14:27;41.57;;;25.60;;
17201;SDS011;8717;53.588;10.176;2022-11-15T00:17:12;41.13;;;24.77;;
17201;SDS011;8717;53.588;10.176;2022-11-15T00:19:59;39.83;;;25.67;;
17201;SDS011;8717;53.588;10.176;2022-11-15T00:22:44;41.27;;;24.90;;
17201;SDS011;8717;53.588;10.176;2022-11-15T00:25:29;39.43;;;24.20;;
17201;SDS011;8717;53.588;10.176;2022-11-15T00:28:15;39.20;;;25.00;;
17201;SDS011;8717;53.588;10.176;2022-11-15T00:31:00;38.70;;;24.50;;
17201;SDS011;8717;53.588;10.176;2022-11-15T00:33:46;40.43;;;24.40;;
17201;SDS011;8717;53.588;10.176;2022-11-15T00:36:33;42.33;;;25.53;;
17201;SDS011;8717;53.588;10.176;2022-11-15T00:39:18;38.60;;;24.97;;
17201;SDS011;8717;53.588;10.176;2022-11-15T00:42:04;39.63;;;25.40;;
17201;SDS011;8717;53.588;10.176;2022-11-15T00:44:49;39.60;;;24.73;;
17201;SDS011;8717;53.588;10.176;2022-11-15T00:47:35;38.97;;;24.47;;
17201;SDS011;8717;53.588;10.176;2022-11-15T00:50:20;41.97;;;25.03;;
17201;SDS011;8717;53.588;10.176;2022-11-15T00:53:07;41.60;;;25.90;;
17201;SDS011;8717;53.588;10.176;2022-11-15T00:55:52;38.73;;;24.70;;
17201;SDS011;8717;53.588;10.176;2022-11-15T00:58:37;35.93;;;23.23;;
17201;SDS011;8717;53.588;10.176;2022-11-15T01:01:23;40.87;;;26.00;;
17201;SDS011;8717;53.588;10.176;2022-11-15T01:04:08;40.93;;;24.60;;
17201;SDS011;8717;53.588;10.176;2022-11-15T01:06:53;41.47;;;25.20;;
17201;SDS011;8717;53.588;10.176;2022-11-15T01:09:40;37.43;;;23.97;;
17201;SDS011;8717;53.588;10.176;2022-11-15T01:12:26;40.83;;;24.83;;
17201;SDS011;8717;53.588;10.176;2022-11-15T01:15:11;41.23;;;26.10;;
17201;SDS011;8717;53.588;10.176;2022-11-15T01:17:56;36.87;;;24.97;;
17201;SDS011;8717;53.588;10.176;2022-11-15T01:20:42;42.60;;;25.73;;
17201;SDS011;8717;53.588;10.176;2022-11-15T01:23:28;37.00;;;23.67;;
17201;SDS011;8717;53.588;10.176;2022-11-15T01:26:15;38.20;;;25.00;;
17201;SDS011;8717;53.588;10.176;2022-11-15T01:29:00;37.67;;;24.47;;
17201;SDS011;8717;53.588;10.176;2022-11-15T01:31:46;41.40;;;25.73;;
17201;SDS011;8717;53.588;10.176;2022-11-15T01:34:31;41.40;;;24.57;;
17201;SDS011;8717;53.588;10.176;2022-11-15T01:37:17;38.70;;;24.53;;
17201;SDS011;8717;53.588;10.176;2022-11-15T01:40:02;38.13;;;24.07;;
17201;SDS011;8717;53.588;10.176;2022-11-15T01:42:49;37.30;;;24.27;;
17201;SDS011;8717;53.588;10.176;2022-11-15T01:45:35;38.70;;;23.73;;
17201;SDS011;8717;53.588;10.176;2022-11-15T01:48:20;37.43;;;23.63;;
17201;SDS011;8717;53.588;10.176;2022-11-15T01:51:09;35.33;;;22.67;;
17201;SDS011;8717;53.588;10.176;2022-11-15T01:54:00;37.93;;;23.20;;
17201;SDS011;8717;53.588;10.176;2022-11-15T01:56:49;35.00;;;23.23;;
17201;SDS011;8717;53.588;10.176;2022-11-15T01:59:38;34.83;;;23.17;;
17201;SDS011;8717;53.588;10.176;2022-11-15T02:02:26;38.13;;;23.47;;
17201;SDS011;8717;53.588;10.176;2022-11-15T02:05:12;33.00;;;22.13;;
17201;SDS011;8717;53.588;10.176;2022-11-15T02:07:59;34.90;;;21.60;;
17201;SDS011;8717;53.588;10.176;2022-11-15T02:10:45;34.20;;;22.50;;
17201;SDS011;8717;53.588;10.176;2022-11-15T02:13:31;35.37;;;22.50;;
17201;SDS011;8717;53.588;10.176;2022-11-15T02:16:20;33.97;;;22.13;;
17201;SDS011;8717;53.588;10.176;2022-11-15T02:19:17;39.40;;;22.27;;
17201;SDS011;8717;53.588;10.176;2022-11-15T02:22:22;34.43;;;22.37;;
17201;SDS011;8717;53.588;10.176;2022-11-15T02:25:24;34.83;;;22.27;;
17201;SDS011;8717;53.588;10.176;2022-11-15T02:28:27;35.83;;;22.43;;
17201;SDS011;8717;53.588;10.176;2022-11-15T02:31:29;33.07;;;21.20;;
17201;SDS011;8717;53.588;10.176;2022-11-15T02:34:22;36.50;;;22.77;;
17201;SDS011;8717;53.588;10.176;2022-11-15T02:37:15;34.43;;;21.93;;
17201;SDS011;8717;53.588;10.176;2022-11-15T02:40:06;33.23;;;21.50;;
17201;SDS011;8717;53.588;10.176;2022-11-15T02:43:04;34.50;;;21.10;;
17201;SDS011;8717;53.588;10.176;2022-11-15T02:46:13;37.00;;;23.97;;
17201;SDS011;8717;53.588;10.176;2022-11-15T02:49:04;33.10;;;21.43;;
17201;SDS011;8717;53.588;10.176;2022-11-15T02:51:49;32.73;;;21.27;;
17201;SDS011;8717;53.588;10.176;2022-11-15T02:54:36;32.10;;;21.23;;
17201;SDS011;8717;53.588;10.176;2022-11-15T02:57:25;85.07;;;24.43;;
17201;SDS011;8717;53.588;10.176;2022-11-15T03:00:15;41.77;;;21.30;;
17201;SDS011;8717;53.588;10.176;2022-11-15T03:03:10;32.70;;;20.93;;
17201;SDS011;8717;53.588;10.176;2022-11-15T03:06:15;34.13;;;22.03;;
17201;SDS011;8717;53.588;10.176;2022-11-15T03:09:09;34.63;;;21.57;;
17201;SDS011;8717;53.588;10.176;2022-11-15T03:12:04;33.20;;;22.13;;
17201;SDS011;8717;53.588;10.176;2022-11-15T03:14:56;39.67;;;21.53;;
17201;SDS011;8717;53.588;10.176;2022-11-15T03:17:46;32.23;;;20.67;;
17201;SDS011;8717;53.588;10.176;2022-11-15T03:20:36;32.03;;;21.23;;
17201;SDS011;8717;53.588;10.176;2022-11-15T03:23:23;34.83;;;21.77;;
17201;SDS011;8717;53.588;10.176;2022-11-15T03:26:11;35.00;;;22.00;;
17201;SDS011;8717;53.588;10.176;2022-11-15T03:29:00;27.27;;;19.17;;
17201;SDS011;8717;53.588;10.176;2022-11-15T03:31:51;29.87;;;20.57;;
17201;SDS011;8717;53.588;10.176;2022-11-15T03:34:42;36.13;;;20.13;;
17201;SDS011;8717;53.588;10.176;2022-11-15T03:37:33;31.43;;;20.07;;
17201;SDS011;8717;53.588;10.176;2022-11-15T03:40:27;32.67;;;20.43;;
17201;SDS011;8717;53.588;10.176;2022-11-15T03:43:20;34.27;;;20.73;;
17201;SDS011;8717;53.588;10.176;2022-11-15T03:46:13;65.33;;;22.23;;
17201;SDS011;8717;53.588;10.176;2022-11-15T03:49:03;34.57;;;20.67;;
17201;SDS011;8717;53.588;10.176;2022-11-15T03:51:56;30.37;;;19.53;;
17201;SDS011;8717;53.588;10.176;2022-11-15T03:54:48;31.97;;;19.97;;
17201;SDS011;8717;53.588;10.176;2022-11-15T03:57:36;31.23;;;19.47;;
17201;SDS011;8717;53.588;10.176;2022-11-15T04:00:21;30.67;;;19.73;;
17201;SDS011;8717;53.588;10.176;2022-11-15T04:03:07;33.97;;;20.57;;
17201;SDS011;8717;53.588;10.176;2022-11-15T04:05:53;30.87;;;20.03;;
17201;SDS011;8717;53.588;10.176;2022-11-15T04:08:39;32.33;;;21.17;;
17201;SDS011;8717;53.588;10.176;2022-11-15T04:11:24;31.60;;;19.80;;
17201;SDS011;8717;53.588;10.176;2022-11-15T04:14:11;28.23;;;19.70;;
17201;SDS011;8717;53.588;10.176;2022-11-15T04:16:56;30.53;;;19.17;;
17201;SDS011;8717;53.588;10.176;2022-11-15T04:19:41;30.83;;;19.73;;
17201;SDS011;8717;53.588;10.176;2022-11-15T04:22:45;29.77;;;19.20;;
17201;SDS011;8717;53.588;10.176;2022-11-15T04:25:49;32.67;;;19.53;;
17201;SDS011;8717;53.588;10.176;2022-11-15T04:28:35;29.50;;;18.43;;
17201;SDS011;8717;53.588;10.176;2022-11-15T04:31:43;27.83;;;19.63;;
17201;SDS011;8717;53.588;10.176;2022-11-15T04:34:28;28.63;;;18.33;;
17201;SDS011;8717;53.588;10.176;2022-11-15T04:37:13;32.83;;;19.73;;
17201;SDS011;8717;53.588;10.176;2022-11-15T04:39:59;28.43;;;18.40;;
17201;SDS011;8717;53.588;10.176;2022-11-15T04:42:45;29.10;;;19.90;;
17201;SDS011;8717;53.588;10.176;2022-11-15T04:45:30;30.07;;;20.00;;
17201;SDS011;8717;53.588;10.176;2022-11-15T04:48:17;28.47;;;18.30;;
17201;SDS011;8717;53.588;10.176;2022-11-15T04:51:02;30.83;;;18.87;;
17201;SDS011;8717;53.588;10.176;2022-11-15T04:53:47;29.73;;;19.80;;
17201;SDS011;8717;53.588;10.176;2022-11-15T04:56:32;29.60;;;19.70;;
17201;SDS011;8717;53.588;10.176;2022-11-15T04:59:21;30.20;;;19.80;;
17201;SDS011;8717;53.588;10.176;2022-11-15T05:02:06;37.37;;;20.43;;
17201;SDS011;8717;53.588;10.176;2022-11-15T05:04:53;34.57;;;20.87;;
17201;SDS011;8717;53.588;10.176;2022-11-15T05:07:37;29.57;;;20.33;;
17201;SDS011;8717;53.588;10.176;2022-11-15T05:10:22;30.43;;;19.87;;
17201;SDS011;8717;53.588;10.176;2022-11-15T05:13:07;29.37;;;19.50;;
17201;SDS011;8717;53.588;10.176;2022-11-15T05:15:53;30.03;;;19.17;;
17201;SDS011;8717;53.588;10.176;2022-11-15T05:18:38;27.13;;;19.40;;
17201;SDS011;8717;53.588;10.176;2022-11-15T05:21:26;29.77;;;19.17;;
17201;SDS011;8717;53.588;10.176;2022-11-15T05:24:11;29.80;;;19.27;;
17201;SDS011;8717;53.588;10.176;2022-11-15T05:26:56;32.10;;;21.13;;
17201;SDS011;8717;53.588;10.176;2022-11-15T05:29:42;29.57;;;18.50;;
17201;SDS011;8717;53.588;10.176;2022-11-15T05:32:30;64.30;;;20.00;;
17201;SDS011;8717;53.588;10.176;2022-11-15T05:35:18;71.00;;;22.23;;
17201;SDS011;8717;53.588;10.176;2022-11-15T05:38:11;29.80;;;19.13;;
17201;SDS011;8717;53.588;10.176;2022-11-15T05:40:57;330.73;;;36.73;;
17201;SDS011;8717;53.588;10.176;2022-11-15T05:43:42;29.43;;;18.57;;
17201;SDS011;8717;53.588;10.176;2022-11-15T05:46:28;74.57;;;21.00;;
17201;SDS011;8717;53.588;10.176;2022-11-15T05:49:15;27.90;;;19.10;;
17201;SDS011;8717;53.588;10.176;2022-11-15T05:52:03;29.47;;;19.10;;
17201;SDS011;8717;53.588;10.176;2022-11-15T05:54:53;26.40;;;19.00;;
17201;SDS011;8717;53.588;10.176;2022-11-15T05:57:40;36.47;;;19.83;;
17201;SDS011;8717;53.588;10.176;2022-11-15T06:00:26;26.93;;;18.43;;
17201;SDS011;8717;53.588;10.176;2022-11-15T06:03:11;27.23;;;18.60;;
17201;SDS011;8717;53.588;10.176;2022-11-15T06:05:57;28.43;;;18.93;;
17201;SDS011;8717;53.588;10.176;2022-11-15T06:08:43;47.27;;;19.70;;
17201;SDS011;8717;53.588;10.176;2022-11-15T06:11:29;28.70;;;18.83;;
17201;SDS011;8717;53.588;10.176;2022-11-15T06:14:15;29.60;;;19.83;;
17201;SDS011;8717;53.588;10.176;2022-11-15T06:17:00;27.93;;;19.70;;
17201;SDS011;8717;53.588;10.176;2022-11-15T06:19:46;27.17;;;19.47;;
17201;SDS011;8717;53.588;10.176;2022-11-15T06:22:31;28.77;;;19.60;;
17201;SDS011;8717;53.588;10.176;2022-11-15T06:25:16;31.90;;;18.50;;
17201;SDS011;8717;53.588;10.176;2022-11-15T06:28:03;27.73;;;19.07;;
17201;SDS011;8717;53.588;10.176;2022-11-15T06:30:49;26.90;;;18.90;;
17201;SDS011;8717;53.588;10.176;2022-11-15T06:33:34;25.73;;;18.47;;
17201;SDS011;8717;53.588;10.176;2022-11-15T06:36:20;28.73;;;19.23;;
17201;SDS011;8717;53.588;10.176;2022-11-15T06:39:05;25.43;;;18.10;;
17201;SDS011;8717;53.588;10.176;2022-11-15T06:41:50;26.40;;;18.00;;
17201;SDS011;8717;53.588;10.176;2022-11-15T06:44:37;23.70;;;17.23;;
17201;SDS011;8717;53.588;10.176;2022-11-15T06:47:22;25.87;;;17.87;;
17201;SDS011;8717;53.588;10.176;2022-11-15T06:50:08;25.90;;;18.43;;
17201;SDS011;8717;53.588;10.176;2022-11-15T06:52:54;25.70;;;18.27;;
17201;SDS011;8717;53.588;10.176;2022-11-15T06:55:39;26.80;;;18.10;;
17201;SDS011;8717;53.588;10.176;2022-11-15T06:58:24;27.97;;;17.97;;
17201;SDS011;8717;53.588;10.176;2022-11-15T07:01:11;24.03;;;16.87;;
17201;SDS011;8717;53.588;10.176;2022-11-15T07:03:57;24.63;;;17.37;;
17201;SDS011;8717;53.588;10.176;2022-11-15T07:06:45;25.30;;;18.00;;
17201;SDS011;8717;53.588;10.176;2022-11-15T07:09:31;21.60;;;16.53;;
17201;SDS011;8717;53.588;10.176;2022-11-15T07:12:16;27.80;;;17.83;;
17201;SDS011;8717;53.588;10.176;2022-11-15T07:15:01;23.07;;;17.17;;
17201;SDS011;8717;53.588;10.176;2022-11-15T07:17:48;23.40;;;16.73;;
17201;SDS011;8717;53.588;10.176;2022-11-15T07:20:34;27.17;;;17.37;;
17201;SDS011;8717;53.588;10.176;2022-11-15T07:23:19;24.63;;;17.03;;
17201;SDS011;8717;53.588;10.176;2022-11-15T07:26:05;23.77;;;17.20;;
17201;SDS011;8717;53.588;10.176;2022-11-15T07:28:51;25.40;;;17.77;;
17201;SDS011;8717;53.588;10.176;2022-11-15T07:31:36;24.20;;;16.30;;
17201;SDS011;8717;53.588;10.176;2022-11-15T07:34:24;22.50;;;16.63;;
17201;SDS011;8717;53.588;10.176;2022-11-15T07:37:09;25.57;;;16.60;;
17201;SDS011;8717;53.588;10.176;2022-11-15T07:39:56;24.13;;;17.03;;
17201;SDS011;8717;53.588;10.176;2022-11-15T07:42:42;25.87;;;18.00;;
17201;SDS011;8717;53.588;10.176;2022-11-15T07:45:40;24.67;;;17.67;;
17201;SDS011;8717;53.588;10.176;2022-11-15T07:48:26;23.43;;;16.87;;
17201;SDS011;8717;53.588;10.176;2022-11-15T07:51:13;26.23;;;17.97;;
17201;SDS011;8717;53.588;10.176;2022-11-15T07:54:02;24.93;;;17.27;;
17201;SDS011;8717;53.588;10.176;2022-11-15T07:56:47;22.97;;;15.87;;
17201;SDS011;8717;53.588;10.176;2022-11-15T07:59:33;21.57;;;16.33;;
17201;SDS011;8717;53.588;10.176;2022-11-15T08:02:20;23.50;;;17.03;;
17201;SDS011;8717;53.588;10.176;2022-11-15T08:05:06;25.50;;;17.47;;
17201;SDS011;8717;53.588;10.176;2022-11-15T08:07:52;23.70;;;16.43;;
17201;SDS011;8717;53.588;10.176;2022-11-15T08:10:39;23.77;;;16.40;;
17201;SDS011;8717;53.588;10.176;2022-11-15T08:13:25;22.17;;;15.47;;
17201;SDS011;8717;53.588;10.176;2022-11-15T08:16:10;24.83;;;17.33;;
17201;SDS011;8717;53.588;10.176;2022-11-15T08:18:56;24.10;;;17.83;;
17201;SDS011;8717;53.588;10.176;2022-11-15T08:21:41;24.03;;;16.27;;
17201;SDS011;8717;53.588;10.176;2022-11-15T08:24:28;24.10;;;16.93;;
17201;SDS011;8717;53.588;10.176;2022-11-15T08:27:13;24.37;;;16.27;;
17201;SDS011;8717;53.588;10.176;2022-11-15T08:30:01;23.20;;;16.77;;
17201;SDS011;8717;53.588;10.176;2022-11-15T08:32:47;22.40;;;16.43;;
17201;SDS011;8717;53.588;10.176;2022-11-15T08:35:33;24.00;;;16.57;;
17201;SDS011;8717;53.588;10.176;2022-11-15T08:38:18;22.43;;;16.20;;
17201;SDS011;8717;53.588;10.176;2022-11-15T08:41:05;24.33;;;16.37;;
17201;SDS011;8717;53.588;10.176;2022-11-15T08:43:50;21.03;;;15.40;;
17201;SDS011;8717;53.588;10.176;2022-11-15T08:46:36;20.67;;;15.17;;
17201;SDS011;8717;53.588;10.176;2022-11-15T08:49:21;23.67;;;16.50;;
17201;SDS011;8717;53.588;10.176;2022-11-15T08:52:06;23.90;;;16.87;;
17201;SDS011;8717;53.588;10.176;2022-11-15T08:54:51;23.20;;;16.53;;
17201;SDS011;8717;53.588;10.176;2022-11-15T08:57:38;23.20;;;16.30;;
17201;SDS011;8717;53.588;10.176;2022-11-15T09:00:24;20.80;;;14.63;;
17201;SDS011;8717;53.588;10.176;2022-11-15T09:03:09;19.53;;;14.33;;
17201;SDS011;8717;53.588;10.176;2022-11-15T09:05:54;21.27;;;15.13;;
17201;SDS011;8717;53.588;10.176;2022-11-15T09:08:41;21.67;;;15.23;;
17201;SDS011;8717;53.588;10.176;2022-11-15T09:11:26;20.60;;;15.30;;
17201;SDS011;8717;53.588;10.176;2022-11-15T09:14:13;23.73;;;15.70;;
17201;SDS011;8717;53.588;10.176;2022-11-15T09:16:58;21.20;;;15.87;;
17201;SDS011;8717;53.588;10.176;2022-11-15T09:19:43;22.63;;;15.53;;
17201;SDS011;8717;53.588;10.176;2022-11-15T09:22:29;22.03;;;16.10;;
17201;SDS011;8717;53.588;10.176;2022-11-15T09:25:14;22.77;;;16.00;;
17201;SDS011;8717;53.588;10.176;2022-11-15T09:27:59;21.30;;;15.60;;
17201;SDS011;8717;53.588;10.176;2022-11-15T09:30:46;21.03;;;15.77;;
17201;SDS011;8717;53.588;10.176;2022-11-15T09:33:31;21.13;;;15.53;;
17201;SDS011;8717;53.588;10.176;2022-11-15T09:36:17;21.40;;;15.47;;
17201;SDS011;8717;53.588;10.176;2022-11-15T09:39:03;20.77;;;15.37;;
17201;SDS011;8717;53.588;10.176;2022-11-15T09:41:56;19.83;;;14.93;;
17201;SDS011;8717;53.588;10.176;2022-11-15T09:44:54;20.53;;;14.70;;
17201;SDS011;8717;53.588;10.176;2022-11-15T09:47:59;19.03;;;13.93;;
17201;SDS011;8717;53.588;10.176;2022-11-15T09:51:06;20.57;;;14.80;;
17201;SDS011;8717;53.588;10.176;2022-11-15T09:53:39;19.07;;;13.87;;
17201;SDS011;8717;53.588;10.176;2022-11-15T09:56:14;18.67;;;13.17;;
17201;SDS011;8717;53.588;10.176;2022-11-15T09:58:45;16.53;;;13.90;;
17201;SDS011;8717;53.588;10.176;2022-11-15T10:01:22;18.37;;;13.90;;
17201;SDS011;8717;53.588;10.176;2022-11-15T10:04:01;21.30;;;14.63;;
17201;SDS011;8717;53.588;10.176;2022-11-15T10:06:28;18.67;;;14.47;;
17201;SDS011;8717;53.588;10.176;2022-11-15T10:08:58;16.37;;;13.07;;
17201;SDS011;8717;53.588;10.176;2022-11-15T10:11:29;19.40;;;14.13;;
17201;SDS011;8717;53.588;10.176;2022-11-15T10:13:59;17.33;;;13.77;;
17201;SDS011;8717;53.588;10.176;2022-11-15T10:16:39;15.97;;;12.10;;
17201;SDS011;8717;53.588;10.176;2022-11-15T10:19:28;15.97;;;12.50;;
17201;SDS011;8717;53.588;10.176;2022-11-15T10:22:08;18.43;;;12.10;;
17201;SDS011;8717;53.588;10.176;2022-11-15T10:24:44;14.53;;;11.67;;
17201;SDS011;8717;53.588;10.176;2022-11-15T10:27:14;14.37;;;11.03;;
17201;SDS011;8717;53.588;10.176;2022-11-15T10:29:42;15.20;;;11.83;;
17201;SDS011;8717;53.588;10.176;2022-11-15T10:32:10;16.43;;;12.07;;
17201;SDS011;8717;53.588;10.176;2022-11-15T10:34:40;14.60;;;11.57;;
17201;SDS011;8717;53.588;10.176;2022-11-15T10:37:06;16.43;;;10.87;;
17201;SDS011;8717;53.588;10.176;2022-11-15T10:39:33;14.57;;;11.73;;
17201;SDS011;8717;53.588;10.176;2022-11-15T10:42:14;13.97;;;10.77;;
17201;SDS011;8717;53.588;10.176;2022-11-15T10:44:42;13.20;;;11.00;;
17201;SDS011;8717;53.588;10.176;2022-11-15T10:50:03;15.33;;;11.97;;
17201;SDS011;8717;53.588;10.176;2022-11-15T10:52:37;16.77;;;11.57;;
17201;SDS011;8717;53.588;10.176;2022-11-15T10:55:22;15.87;;;11.90;;
17201;SDS011;8717;53.588;10.176;2022-11-15T10:57:53;16.97;;;11.37;;
17201;SDS011;8717;53.588;10.176;2022-11-15T11:00:27;15.13;;;11.60;;
17201;SDS011;8717;53.588;10.176;2022-11-15T11:02:58;15.17;;;11.17;;
17201;SDS011;8717;53.588;10.176;2022-11-15T11:05:29;15.00;;;10.93;;
17201;SDS011;8717;53.588;10.176;2022-11-15T11:07:58;14.60;;;11.37;;
17201;SDS011;8717;53.588;10.176;2022-11-15T11:10:27;14.17;;;10.80;;
17201;SDS011;8717;53.588;10.176;2022-11-15T11:12:54;15.43;;;11.40;;
17201;SDS011;8717;53.588;10.176;2022-11-15T11:15:22;15.37;;;11.50;;
17201;SDS011;8717;53.588;10.176;2022-11-15T11:17:57;14.70;;;11.20;;
17201;SDS011;8717;53.588;10.176;2022-11-15T11:20:32;14.90;;;11.13;;
17201;SDS011;8717;53.588;10.176;2022-11-15T11:23:05;16.30;;;11.87;;
17201;SDS011;8717;53.588;10.176;2022-11-15T11:25:50;14.80;;;11.13;;
17201;SDS011;8717;53.588;10.176;2022-11-15T11:28:28;13.30;;;11.30;;
17201;SDS011;8717;53.588;10.176;2022-11-15T11:31:08;13.37;;;10.50;;
17201;SDS011;8717;53.588;10.176;2022-11-15T11:33:44;12.87;;;10.67;;
17201;SDS011;8717;53.588;10.176;2022-11-15T11:36:25;13.60;;;11.50;;
17201;SDS011;8717;53.588;10.176;2022-11-15T11:39:00;14.37;;;10.90;;
17201;SDS011;8717;53.588;10.176;2022-11-15T11:41:40;12.33;;;10.13;;
17201;SDS011;8717;53.588;10.176;2022-11-15T11:44:25;14.63;;;10.70;;
17201;SDS011;8717;53.588;10.176;2022-11-15T11:46:59;13.00;;;10.53;;
17201;SDS011;8717;53.588;10.176;2022-11-15T11:49:29;13.70;;;10.17;;
17201;SDS011;8717;53.588;10.176;2022-11-15T11:52:08;13.37;;;9.70;;
17201;SDS011;8717;53.588;10.176;2022-11-15T11:54:42;12.00;;;9.67;;
17201;SDS011;8717;53.588;10.176;2022-11-15T11:57:16;14.27;;;10.50;;
17201;SDS011;8717;53.588;10.176;2022-11-15T11:59:58;12.20;;;9.70;;
17201;SDS011;8717;53.588;10.176;2022-11-15T12:02:38;13.77;;;9.80;;
17201;SDS011;8717;53.588;10.176;2022-11-15T12:05:09;13.10;;;10.03;;
17201;SDS011;8717;53.588;10.176;2022-11-15T12:07:41;12.30;;;10.03;;
17201;SDS011;8717;53.588;10.176;2022-11-15T12:10:15;12.70;;;9.70;;
17201;SDS011;8717;53.588;10.176;2022-11-15T12:12:47;12.73;;;9.13;;
17201;SDS011;8717;53.588;10.176;2022-11-15T12:15:20;11.77;;;9.60;;
17201;SDS011;8717;53.588;10.176;2022-11-15T12:17:50;13.20;;;9.63;;
17201;SDS011;8717;53.588;10.176;2022-11-15T12:20:18;12.03;;;9.50;;
17201;SDS011;8717;53.588;10.176;2022-11-15T12:22:53;12.33;;;9.60;;
17201;SDS011;8717;53.588;10.176;2022-11-15T12:25:24;13.30;;;9.63;;
17201;SDS011;8717;53.588;10.176;2022-11-15T12:27:56;11.33;;;8.80;;
17201;SDS011;8717;53.588;10.176;2022-11-15T12:30:29;10.20;;;8.50;;
17201;SDS011;8717;53.588;10.176;2022-11-15T12:33:27;14.30;;;8.80;;
17201;SDS011;8717;53.588;10.176;2022-11-15T12:36:01;11.60;;;8.83;;
17201;SDS011;8717;53.588;10.176;2022-11-15T12:41:26;11.90;;;9.30;;
17201;SDS011;8717;53.588;10.176;2022-11-15T12:43:54;11.57;;;7.97;;
17201;SDS011;8717;53.588;10.176;2022-11-15T12:46:22;10.70;;;8.37;;
17201;SDS011;8717;53.588;10.176;2022-11-15T12:49:08;11.53;;;9.40;;
17201;SDS011;8717;53.588;10.176;2022-11-15T12:57:37;9.60;;;7.93;;
17201;SDS011;8717;53.588;10.176;2022-11-15T13:03:16;10.83;;;8.73;;
17201;SDS011;8717;53.588;10.176;2022-11-15T13:08:35;9.83;;;8.10;;
17201;SDS011;8717;53.588;10.176;2022-11-15T13:17:25;10.20;;;8.33;;
17201;SDS011;8717;53.588;10.176;2022-11-15T13:20:16;10.17;;;8.30;;
17201;SDS011;8717;53.588;10.176;2022-11-15T13:22:48;9.07;;;7.70;;
17201;SDS011;8717;53.588;10.176;2022-11-15T13:25:28;11.57;;;8.47;;
17201;SDS011;8717;53.588;10.176;2022-11-15T13:28:22;12.53;;;8.40;;
17201;SDS011;8717;53.588;10.176;2022-11-15T13:30:56;10.80;;;8.20;;
17201;SDS011;8717;53.588;10.176;2022-11-15T13:33:25;10.63;;;8.07;;
17201;SDS011;8717;53.588;10.176;2022-11-15T13:35:58;9.63;;;7.83;;
17201;SDS011;8717;53.588;10.176;2022-11-15T13:38:28;11.53;;;7.53;;
17201;SDS011;8717;53.588;10.176;2022-11-15T13:40:56;11.70;;;8.13;;
17201;SDS011;8717;53.588;10.176;2022-11-15T13:43:28;10.07;;;7.93;;
17201;SDS011;8717;53.588;10.176;2022-11-15T13:46:06;9.43;;;7.87;;
17201;SDS011;8717;53.588;10.176;2022-11-15T13:48:34;11.63;;;8.47;;
17201;SDS011;8717;53.588;10.176;2022-11-15T13:51:01;9.63;;;8.13;;
17201;SDS011;8717;53.588;10.176;2022-11-15T13:53:30;10.57;;;7.77;;
17201;SDS011;8717;53.588;10.176;2022-11-15T13:55:58;11.20;;;8.60;;
17201;SDS011;8717;53.588;10.176;2022-11-15T13:58:25;11.57;;;8.03;;
17201;SDS011;8717;53.588;10.176;2022-11-15T14:00:58;11.53;;;8.10;;
17201;SDS011;8717;53.588;10.176;2022-11-15T14:03:28;10.50;;;8.17;;
17201;SDS011;8717;53.588;10.176;2022-11-15T14:06:02;11.27;;;7.97;;
17201;SDS011;8717;53.588;10.176;2022-11-15T14:08:32;8.93;;;7.50;;
17201;SDS011;8717;53.588;10.176;2022-11-15T14:11:07;12.20;;;7.50;;
17201;SDS011;8717;53.588;10.176;2022-11-15T14:13:35;11.33;;;7.87;;
17201;SDS011;8717;53.588;10.176;2022-11-15T14:16:12;10.27;;;7.80;;
17201;SDS011;8717;53.588;10.176;2022-11-15T14:18:43;10.97;;;8.10;;
17201;SDS011;8717;53.588;10.176;2022-11-15T14:21:12;10.37;;;7.50;;
17201;SDS011;8717;53.588;10.176;2022-11-15T14:23:39;9.80;;;7.70;;
17201;SDS011;8717;53.588;10.176;2022-11-15T14:26:10;9.53;;;7.83;;
17201;SDS011;8717;53.588;10.176;2022-11-15T14:28:51;11.00;;;8.30;;
17201;SDS011;8717;53.588;10.176;2022-11-15T14:31:18;11.03;;;7.60;;
17201;SDS011;8717;53.588;10.176;2022-11-15T14:33:48;9.23;;;7.03;;
17201;SDS011;8717;53.588;10.176;2022-11-15T14:36:15;9.17;;;7.40;;
17201;SDS011;8717;53.588;10.176;2022-11-15T14:38:43;10.10;;;7.80;;
17201;SDS011;8717;53.588;10.176;2022-11-15T14:41:16;9.20;;;6.73;;
17201;SDS011;8717;53.588;10.176;2022-11-15T14:43:45;10.47;;;7.30;;
17201;SDS011;8717;53.588;10.176;2022-11-15T14:46:11;9.67;;;7.70;;
17201;SDS011;8717;53.588;10.176;2022-11-15T14:48:38;10.00;;;7.47;;
17201;SDS011;8717;53.588;10.176;2022-11-15T14:51:10;9.97;;;7.37;;
17201;SDS011;8717;53.588;10.176;2022-11-15T14:53:39;9.20;;;7.00;;
17201;SDS011;8717;53.588;10.176;2022-11-15T14:56:06;9.53;;;7.33;;
17201;SDS011;8717;53.588;10.176;2022-11-15T14:58:32;15.17;;;7.80;;
17201;SDS011;8717;53.588;10.176;2022-11-15T15:00:59;9.20;;;6.90;;
17201;SDS011;8717;53.588;10.176;2022-11-15T15:03:27;8.90;;;7.40;;
17201;SDS011;8717;53.588;10.176;2022-11-15T15:05:54;9.57;;;6.50;;
17201;SDS011;8717;53.588;10.176;2022-11-15T15:08:22;9.57;;;7.50;;
17201;SDS011;8717;53.588;10.176;2022-11-15T15:10:49;9.23;;;6.83;;
17201;SDS011;8717;53.588;10.176;2022-11-15T15:13:17;8.20;;;7.10;;
17201;SDS011;8717;53.588;10.176;2022-11-15T15:15:45;8.40;;;7.17;;
17201;SDS011;8717;53.588;10.176;2022-11-15T15:18:13;10.07;;;7.80;;
17201;SDS011;8717;53.588;10.176;2022-11-15T15:20:41;9.20;;;7.10;;
17201;SDS011;8717;53.588;10.176;2022-11-15T15:23:10;10.77;;;8.23;;
17201;SDS011;8717;53.588;10.176;2022-11-15T15:25:43;9.00;;;7.50;;
17201;SDS011;8717;53.588;10.176;2022-11-15T15:28:11;11.93;;;8.30;;
17201;SDS011;8717;53.588;10.176;2022-11-15T15:30:37;10.17;;;7.63;;
17201;SDS011;8717;53.588;10.176;2022-11-15T15:33:04;10.53;;;7.83;;
17201;SDS011;8717;53.588;10.176;2022-11-15T15:35:31;11.77;;;7.90;;
17201;SDS011;8717;53.588;10.176;2022-11-15T15:37:59;9.37;;;7.60;;
17201;SDS011;8717;53.588;10.176;2022-11-15T15:40:27;8.90;;;7.43;;
17201;SDS011;8717;53.588;10.176;2022-11-15T15:42:56;10.60;;;7.77;;
17201;SDS011;8717;53.588;10.176;2022-11-15T15:45:24;9.63;;;7.70;;
17201;SDS011;8717;53.588;10.176;2022-11-15T15:47:52;9.87;;;7.27;;
17201;SDS011;8717;53.588;10.176;2022-11-15T15:50:22;10.97;;;8.07;;
17201;SDS011;8717;53.588;10.176;2022-11-15T15:52:50;8.37;;;7.30;;
17201;SDS011;8717;53.588;10.176;2022-11-15T15:55:18;10.17;;;8.10;;
17201;SDS011;8717;53.588;10.176;2022-11-15T15:57:46;9.97;;;8.00;;
17201;SDS011;8717;53.588;10.176;2022-11-15T16:00:14;10.97;;;8.30;;
17201;SDS011;8717;53.588;10.176;2022-11-15T16:02:42;10.77;;;8.40;;
17201;SDS011;8717;53.588;10.176;2022-11-15T16:05:09;9.97;;;8.20;;
17201;SDS011;8717;53.588;10.176;2022-11-15T16:07:37;11.40;;;8.47;;
17201;SDS011;8717;53.588;10.176;2022-11-15T16:10:13;10.43;;;8.23;;
17201;SDS011;8717;53.588;10.176;2022-11-15T16:12:45;9.53;;;8.10;;